createdAt,value
2022-10-06T00:04:30.642Z,99312.00
2022-10-06T00:09:32.923Z,99319.06
2022-10-06T00:14:35.411Z,99308.56
2022-10-06T00:19:56.340Z,99324.19
2022-10-06T00:24:58.484Z,99355.56
2022-10-06T00:30:00.661Z,99332.06
2022-10-06T00:35:02.895Z,99312.00
2022-10-06T00:40:24.515Z,99261.41
2022-10-06T00:45:34.084Z,99367.81
2022-10-06T00:50:36.618Z,99239.63
2022-10-06T00:55:39.032Z,99340.78
2022-10-06T01:00:42.637Z,99346.00
2022-10-06T01:05:47.652Z,99278.88
2022-10-06T01:10:49.774Z,99342.59
2022-10-06T01:16:11.124Z,99328.75
2022-10-06T01:21:23.147Z,99313.84
2022-10-06T01:26:26.315Z,99343.50
2022-10-06T01:31:40.976Z,99318.19
2022-10-06T01:36:43.596Z,99344.44
2022-10-06T01:42:04.933Z,99349.66
2022-10-06T01:47:08.242Z,99336.59
2022-10-06T01:52:10.849Z,99312.19
2022-10-06T01:57:13.319Z,99333.13
2022-10-06T02:02:24.720Z,99276.41
2022-10-06T02:07:27.573Z,99286.94
2022-10-06T02:12:32.001Z,99302.59
2022-10-06T02:17:35.689Z,99325.38
2022-10-06T02:22:39.623Z,99268.56
2022-10-06T02:27:41.791Z,99295.59
2022-10-06T02:32:46.305Z,99320.94
2022-10-06T02:37:49.461Z,99300.84
2022-10-06T02:43:12.865Z,99313.06
2022-10-06T02:48:15.341Z,99345.25
2022-10-06T02:53:17.610Z,99343.59
2022-10-06T02:58:43.028Z,99318.28
2022-10-06T03:03:48.599Z,99360.09
2022-10-06T03:09:00.964Z,99380.25
2022-10-06T03:14:05.236Z,99346.16
2022-10-06T03:19:08.510Z,99345.25
2022-10-06T03:24:11.662Z,99356.69
2022-10-06T03:29:16.228Z,99334.84
2022-10-06T03:34:41.614Z,99320.03
2022-10-06T03:39:47.821Z,99313.06
2022-10-06T03:44:50.410Z,99362.75
2022-10-06T03:49:52.653Z,99390.66
2022-10-06T03:54:54.877Z,99338.28
2022-10-06T04:00:00.009Z,99375.84
2022-10-06T04:05:02.395Z,99354.06
2022-10-06T04:10:06.155Z,99356.69
2022-10-06T04:15:27.361Z,99342.78
2022-10-06T04:20:29.837Z,99350.63
2022-10-06T04:25:33.094Z,99364.63
2022-10-06T04:30:36.145Z,99339.31
2022-10-06T04:35:38.888Z,99278.22
2022-10-06T04:40:41.779Z,99401.22
2022-10-06T04:45:44.042Z,99351.47
2022-10-06T04:50:57.107Z,99377.69
2022-10-06T04:56:19.106Z,99354.97
2022-10-06T05:01:21.866Z,99403.03
2022-10-06T05:06:26.740Z,99400.38
2022-10-06T05:11:32.057Z,99405.66
2022-10-06T05:16:37.768Z,99368.16
2022-10-06T05:21:59.578Z,99382.16
2022-10-06T05:27:08.691Z,99366.47
2022-10-06T05:32:10.934Z,99356.94
2022-10-06T05:37:31.855Z,99390.06
2022-10-06T05:42:34.327Z,99396.19
2022-10-06T05:47:36.936Z,99368.34
2022-10-06T05:52:39.241Z,99384.06
2022-10-06T05:57:42.160Z,99357.94
2022-10-06T06:02:44.429Z,99257.66
2022-10-06T06:07:48.296Z,99341.38
2022-10-06T06:12:50.670Z,99393.75
2022-10-06T06:18:13.107Z,99380.69
2022-10-06T06:23:36.659Z,99413.91
2022-10-06T06:28:42.841Z,99411.28
2022-10-06T06:33:45.878Z,99374.69
2022-10-06T06:38:52.056Z,99355.56
2022-10-06T06:43:57.025Z,99351.25
2022-10-06T06:49:12.230Z,99409.72
2022-10-06T06:54:19.532Z,99382.69
2022-10-06T06:59:45.819Z,99381.84
2022-10-06T07:05:11.774Z,99376.63
2022-10-06T07:10:14.658Z,99363.50
2022-10-06T07:15:53.833Z,99400.16
2022-10-06T07:21:14.491Z,99335.69
2022-10-06T07:26:17.008Z,99373.22
2022-10-06T07:31:20.033Z,99369.72
2022-10-06T07:36:46.107Z,99380.22
2022-10-06T07:42:08.060Z,99362.81
2022-10-06T07:47:11.201Z,99374.16
2022-10-06T07:52:31.335Z,99350.66
2022-10-06T07:57:35.535Z,99373.38
2022-10-06T08:02:56.374Z,99349.00
2022-10-06T08:07:58.847Z,99392.63
2022-10-06T08:13:01.946Z,99386.53
2022-10-06T08:18:12.185Z,99348.13
2022-10-06T08:23:32.643Z,99350.81
2022-10-06T08:28:36.766Z,99367.38
2022-10-06T08:33:40.152Z,99392.66
2022-10-06T08:39:01.552Z,99354.31
2022-10-06T08:44:16.066Z,99413.63
2022-10-06T08:49:46.067Z,99421.44
2022-10-06T08:54:59.756Z,99395.28
2022-10-06T09:00:19.689Z,99363.06
2022-10-06T09:05:28.708Z,99378.75
2022-10-06T09:10:36.926Z,99410.16
2022-10-06T09:15:45.054Z,99391.03
2022-10-06T09:21:18.420Z,99354.41
2022-10-06T09:26:24.012Z,99378.84
2022-10-06T09:31:50.779Z,99372.72
2022-10-06T09:37:13.002Z,99381.50
2022-10-06T09:42:35.777Z,99358.84
2022-10-06T09:48:13.021Z,99342.31
2022-10-06T09:53:16.476Z,99311.81
2022-10-06T09:58:30.658Z,99391.97
2022-10-06T10:04:01.870Z,99366.75
2022-10-06T10:09:21.812Z,99369.38
2022-10-06T10:14:24.837Z,99267.47
2022-10-06T10:19:33.801Z,99338.03
2022-10-06T10:24:39.021Z,99383.31
2022-10-06T10:29:45.821Z,99362.41
2022-10-06T10:35:16.774Z,99388.56
2022-10-06T10:40:35.634Z,99402.50
2022-10-06T10:45:58.143Z,99343.25
2022-10-06T10:51:09.480Z,99398.13
2022-10-06T10:56:12.620Z,99378.97
2022-10-06T11:01:35.616Z,99397.25
2022-10-06T11:06:55.269Z,99395.50
2022-10-06T11:12:11.192Z,99393.75
2022-10-06T11:17:32.061Z,99402.47
2022-10-06T11:23:08.452Z,99395.50
2022-10-06T11:28:39.562Z,99387.63
2022-10-06T11:34:09.515Z,99325.84
2022-10-06T11:39:34.376Z,99359.78
2022-10-06T11:44:43.098Z,99277.94
2022-10-06T11:49:49.664Z,99326.69
2022-10-06T11:55:16.257Z,99284.03
2022-10-06T12:00:43.196Z,99320.53
2022-10-06T12:06:00.725Z,99262.25
2022-10-06T12:11:03.218Z,99346.66
2022-10-06T12:22:22.688Z,99344.03
2022-10-06T12:28:02.714Z,99350.13
2022-10-06T12:33:05.964Z,99312.69
2022-10-06T12:38:35.831Z,99350.13
2022-10-06T12:43:54.904Z,99324.84
2022-10-06T12:49:24.158Z,99350.97
2022-10-06T12:54:40.187Z,99323.97
2022-10-06T12:59:42.546Z,99311.81
2022-10-06T13:04:54.343Z,99355.34
2022-10-06T13:10:21.842Z,99303.06
2022-10-06T13:15:43.467Z,99284.81
2022-10-06T13:20:58.520Z,99265.69
2022-10-06T13:26:27.897Z,99330.09
2022-10-06T13:31:52.942Z,99309.16
2022-10-06T13:36:56.050Z,99325.75
2022-10-06T13:42:55.878Z,99346.63
2022-10-06T13:48:27.506Z,99336.13
2022-10-06T13:53:31.947Z,99310.91
2022-10-06T13:58:34.148Z,99276.09
2022-10-06T14:08:58.782Z,99314.41
2022-10-06T14:14:03.415Z,99336.16
2022-10-06T14:19:06.472Z,99309.19
2022-10-06T14:24:19.118Z,99331.75
2022-10-06T14:29:41.521Z,99297.81
2022-10-06T14:34:43.913Z,99219.56
2022-10-06T14:39:46.586Z,99286.56
2022-10-06T14:44:48.756Z,99332.72
2022-10-06T14:50:09.804Z,99351.84
2022-10-06T14:55:31.418Z,99307.41
2022-10-06T15:00:33.625Z,99306.56
2022-10-06T15:05:55.690Z,99294.38
2022-10-06T15:10:57.796Z,99263.03
2022-10-06T15:16:00.185Z,99261.31
2022-10-06T15:21:04.109Z,99317.03
2022-10-06T15:26:25.338Z,99297.88
2022-10-06T15:31:55.153Z,99297.00
2022-10-06T15:36:58.228Z,99315.25
2022-10-06T15:42:00.885Z,99283.09
2022-10-06T15:47:05.906Z,99333.56
2022-10-06T15:52:11.201Z,99280.47
2022-10-06T15:57:20.282Z,99277.00
2022-10-06T16:02:42.306Z,99268.25
2022-10-06T16:07:44.609Z,99293.50
2022-10-06T16:12:49.234Z,99320.50
2022-10-06T16:17:51.400Z,99328.34
2022-10-06T16:22:56.559Z,99294.41
2022-10-06T16:27:59.010Z,99229.13
2022-10-06T16:33:01.194Z,99291.75
2022-10-06T16:38:04.389Z,99237.84
2022-10-06T16:43:06.655Z,99270.03
2022-10-06T16:48:08.848Z,99251.75
2022-10-06T16:53:16.876Z,99325.72
2022-10-06T16:58:19.497Z,99270.00
2022-10-06T17:03:21.633Z,99280.44
2022-10-06T17:08:24.050Z,99310.03
2022-10-06T17:13:46.374Z,99303.94
2022-10-06T17:18:53.375Z,99258.69
2022-10-06T17:24:14.193Z,99286.50
2022-10-06T17:29:21.628Z,99302.19
2022-10-06T17:34:27.740Z,99256.91
2022-10-06T17:39:32.898Z,99297.84
2022-10-06T17:44:35.687Z,99218.63
2022-10-06T17:49:37.914Z,99265.56
2022-10-06T17:54:44.772Z,99236.00
2022-10-06T17:59:48.251Z,99229.88
2022-10-06T18:04:53.571Z,99215.09
2022-10-06T18:10:14.136Z,99220.25
2022-10-06T18:15:17.753Z,99162.03
2022-10-06T18:20:30.190Z,99195.97
2022-10-06T18:25:32.887Z,99205.53
2022-10-06T18:30:40.673Z,99245.53
2022-10-06T18:41:12.990Z,99158.56
2022-10-06T18:52:31.761Z,98987.44
2022-10-06T18:57:34.036Z,99188.16
2022-10-06T19:02:36.251Z,99208.97
2022-10-06T19:07:38.401Z,99147.25
2022-10-06T19:12:40.581Z,99252.50
2022-10-06T19:17:45.765Z,99229.84
2022-10-06T19:22:48.101Z,99211.63
2022-10-06T19:27:51.408Z,99221.16
2022-10-06T19:33:12.408Z,99144.66
2022-10-06T19:38:14.602Z,99231.59
2022-10-06T19:43:17.405Z,99108.16
2022-10-06T19:48:20.288Z,99193.31
2022-10-06T19:53:22.761Z,99165.47
2022-10-06T19:58:43.520Z,99213.28
2022-10-06T20:03:45.856Z,99188.91
2022-10-06T20:09:09.075Z,99181.94
2022-10-06T20:14:21.076Z,99220.16
2022-10-06T20:19:25.633Z,99158.44
2022-10-06T20:24:28.056Z,99227.16
2022-10-06T20:29:31.309Z,99210.66
2022-10-06T20:34:52.183Z,99202.81
2022-10-06T20:40:12.805Z,99166.28
2022-10-06T20:45:33.504Z,99211.53
2022-10-06T20:50:35.840Z,99188.03
2022-10-06T20:55:41.103Z,99231.53
2022-10-06T21:01:10.819Z,99212.41
2022-10-06T21:06:16.809Z,99180.25
2022-10-06T21:11:23.369Z,99242.84
2022-10-06T21:16:34.144Z,99177.59
2022-10-06T21:21:37.805Z,99211.53
2022-10-06T21:26:42.815Z,99159.41
2022-10-06T21:31:45.337Z,99221.13
2022-10-06T21:37:07.235Z,99244.63
2022-10-06T21:42:09.467Z,99223.75
2022-10-06T21:47:11.893Z,99168.09
2022-10-06T21:52:14.089Z,99241.16
2022-10-06T21:57:16.240Z,99218.50
2022-10-06T22:02:18.408Z,99228.06
2022-10-06T22:07:20.621Z,99129.00
2022-10-06T22:12:22.784Z,99249.88
2022-10-06T22:17:26.821Z,99265.53
2022-10-06T22:22:29.039Z,99250.75
2022-10-06T22:27:32.475Z,99237.69
2022-10-06T22:32:34.627Z,99265.53
2022-10-06T22:37:55.649Z,99261.19
2022-10-06T22:42:57.832Z,99236.84
2022-10-06T22:48:00.003Z,99245.53
2022-10-06T22:53:23.420Z,99271.69
2022-10-06T22:58:26.035Z,99255.16
2022-10-06T23:03:28.390Z,99221.19
2022-10-06T23:08:35.095Z,99220.34
2022-10-06T23:13:38.069Z,99269.06
2022-10-06T23:18:41.330Z,99278.69
2022-10-06T23:23:43.595Z,99253.44
2022-10-06T23:28:47.231Z,99302.19
2022-10-06T23:33:49.539Z,99281.34
2022-10-06T23:38:51.932Z,99295.25
2022-10-06T23:43:54.077Z,99291.78
2022-10-06T23:48:56.261Z,99297.91
2022-10-06T23:53:58.446Z,99299.63
2022-10-06T23:59:00.657Z,99267.47
